Time;durP1;ratioP1;P1;durP2;ratioP2;P2;SDS_P1;SDS_P2;PMS_P1;PMS_P2;Temp;Humidity;BMP_temperature;BMP_pressure;BME280_temperature;BME280_humidity;BME280_pressure;Samples;Min_cycle;Max_cycle;Signal;HPM_P1;HPM_P2
2022/06/15 00:00:13;;;;;;;0.50;0.40;;;;;;;17.95;100.00;95568.06;5092261;28;20878;-67
2022/06/15 00:02:43;;;;;;;0.50;0.30;;;;;;;17.96;100.00;95609.88;5092167;28;20515;-67
2022/06/15 00:05:11;;;;;;;0.70;0.50;;;;;;;17.74;100.00;95608.00;5092499;28;20530;-66
2022/06/15 00:07:40;;;;;;;0.50;0.30;;;;;;;17.63;100.00;95606.72;5092169;28;20468;-68
2022/06/15 00:10:10;;;;;;;0.40;0.30;;;;;;;17.84;100.00;95601.59;5092326;28;20467;-66
2022/06/15 00:12:38;;;;;;;0.50;0.50;;;;;;;17.98;100.00;95603.09;5092499;28;20477;-66
2022/06/15 00:15:09;;;;;;;0.40;0.20;;;;;;;17.74;100.00;95573.97;5092070;28;20424;-66
2022/06/15 00:17:39;;;;;;;0.53;0.40;;;;;;;17.61;100.00;95604.31;5092343;28;20544;-67
2022/06/15 00:20:09;;;;;;;1.13;0.60;;;;;;;17.59;100.00;95587.75;5092074;28;20916;-66
2022/06/15 00:22:38;;;;;;;0.90;0.73;;;;;;;17.48;100.00;95599.78;5092471;28;20511;-66
2022/06/15 00:25:07;;;;;;;0.40;0.30;;;;;;;17.75;100.00;95599.69;5092011;28;20517;-66
2022/06/15 00:27:36;;;;;;;0.50;0.50;;;;;;;17.75;100.00;95599.69;5091842;28;20499;-66
2022/06/15 00:30:06;;;;;;;0.40;0.30;;;;;;;17.53;100.00;95602.38;5092258;28;20846;-65
2022/06/15 00:32:36;;;;;;;0.83;0.83;;;;;;;17.19;100.00;95524.41;5091797;28;20860;-65
2022/06/15 00:35:05;;;;;;;0.50;0.50;;;;;;;17.83;100.00;95613.44;5092366;28;20489;-65
2022/06/15 00:37:36;;;;;;;0.53;0.50;;;;;;;17.87;100.00;95611.72;5091825;28;20436;-65
2022/06/15 00:40:10;;;;;;;0.40;0.30;;;;;;;17.89;100.00;95604.13;5091958;28;20416;-65
2022/06/15 00:42:38;;;;;;;0.40;0.30;;;;;;;17.74;100.00;95597.28;5091824;28;20500;-65
2022/06/15 00:45:08;;;;;;;0.40;0.37;;;;;;;17.98;100.00;95605.00;5091772;28;20424;-65
2022/06/15 00:47:43;;;;;;;0.40;0.20;;;;;;;18.02;100.00;95604.06;5091442;28;20971;-65
2022/06/15 00:50:17;;;;;;;0.40;0.30;;;;;;;17.41;100.00;95545.81;5092068;28;20507;-65
2022/06/15 00:52:52;;;;;;;0.50;0.30;;;;;;;17.76;100.00;95600.44;5091249;28;20479;-65
2022/06/15 00:55:25;;;;;;;0.40;0.30;;;;;;;17.79;100.00;95605.19;5092075;28;20444;-64
2022/06/15 00:57:54;;;;;;;0.50;0.50;;;;;;;17.77;100.00;95610.88;5091537;28;20424;-65
2022/06/15 01:00:23;;;;;;;0.40;0.20;;;;;;;17.80;100.00;95606.00;5091871;28;20481;-65
2022/06/15 01:02:53;;;;;;;0.40;0.30;;;;;;;17.81;100.00;95607.59;5091495;28;20614;-65
2022/06/15 01:05:26;;;;;;;0.50;0.30;;;;;;;17.35;100.00;95533.66;5094657;28;20459;-64
2022/06/15 01:08:16;;;;;;;0.40;0.30;;;;;;;17.06;100.00;95498.50;5095161;28;20507;-64
2022/06/15 01:11:09;;;;;;;0.67;0.53;;;;;;;17.45;100.00;95536.09;5095480;28;20417;-64
2022/06/15 01:13:58;;;;;;;0.50;0.30;;;;;;;17.80;100.00;95606.00;5095317;28;20493;-64
2022/06/15 01:16:38;;;;;;;0.40;0.20;;;;;;;17.65;100.00;95570.44;5095396;28;20505;-64
2022/06/15 01:19:34;;;;;;;0.60;0.60;;;;;;;17.42;100.00;95544.75;5095110;28;20447;-64
2022/06/15 01:22:27;;;;;;;1.00;0.30;;;;;;;17.41;100.00;95551.19;5095254;28;20436;-64
2022/06/15 01:25:20;;;;;;;0.60;0.30;;;;;;;17.34;100.00;95563.44;5094983;28;20436;-64
2022/06/15 01:28:14;;;;;;;0.40;0.27;;;;;;;17.42;100.00;95568.84;5094782;28;20547;-63
2022/06/15 01:30:54;;;;;;;0.50;0.30;;;;;;;13.62;100.00;95087.47;5094957;28;20843;-64
2022/06/15 01:33:33;;;;;;;0.50;0.30;;;;;;;16.80;100.00;95543.81;5094915;28;20428;-64
2022/06/15 01:36:15;;;;;;;0.40;0.30;;;;;;;16.93;100.00;95550.22;5095412;28;20488;-64
2022/06/15 01:38:53;;;;;;;0.40;0.20;;;;;;;16.81;100.00;95608.84;5094777;28;20966;-64
2022/06/15 01:41:31;;;;;;;0.50;0.40;;;;;;;16.80;100.00;95607.28;5094736;28;20971;-62
2022/06/15 01:44:08;;;;;;;0.40;0.30;;;;;;;17.19;100.00;95612.81;5094229;28;20514;-63
2022/06/15 01:46:43;;;;;;;0.40;0.30;;;;;;;17.13;100.00;95576.50;5094786;28;20496;-63
2022/06/15 01:49:19;;;;;;;0.40;0.30;;;;;;;17.10;100.00;95547.69;5094668;28;20499;-63
2022/06/15 01:51:49;;;;;;;0.40;0.30;;;;;;;17.47;100.00;95603.56;5094664;28;20424;-63
2022/06/15 01:54:24;;;;;;;0.70;0.30;;;;;;;17.40;100.00;95592.50;5093669;28;20495;-63
2022/06/15 01:56:57;;;;;;;0.40;0.20;;;;;;;15.94;100.00;95427.19;5094798;28;20508;-63
2022/06/15 01:59:31;;;;;;;0.50;0.40;;;;;;;17.28;100.00;95616.34;5094539;28;20901;-63
2022/06/15 02:02:12;;;;;;;7.03;3.53;;;;;;;17.44;100.00;95617.56;5093377;28;20423;-63
2022/06/15 02:04:54;;;;;;;0.50;0.30;;;;;;;16.76;100.00;95521.44;5094601;28;20511;-63
2022/06/15 02:07:33;;;;;;;0.50;0.40;;;;;;;17.40;100.00;95616.63;5094345;28;20452;-63
2022/06/15 02:10:08;;;;;;;0.50;0.33;;;;;;;17.48;100.00;95625.81;5093667;28;20481;-63
2022/06/15 02:12:41;;;;;;;0.40;0.40;;;;;;;17.46;100.00;95618.06;5094401;28;20445;-62
2022/06/15 02:15:12;;;;;;;0.50;0.37;;;;;;;17.45;100.00;95616.50;5093705;28;20901;-62
2022/06/15 02:17:46;;;;;;;0.50;0.33;;;;;;;17.46;100.00;95614.56;5094530;28;20504;-62
2022/06/15 02:20:18;;;;;;;0.40;0.20;;;;;;;17.49;100.00;95616.66;5094228;28;20516;-62
2022/06/15 02:22:48;;;;;;;0.50;0.30;;;;;;;17.30;100.00;95614.16;5094559;28;20507;-63
2022/06/15 02:25:20;;;;;;;0.50;0.30;;;;;;;17.30;100.00;95616.84;5094115;28;20482;-62
2022/06/15 02:27:51;;;;;;;0.50;0.40;;;;;;;17.30;100.00;95611.50;5094243;28;20548;-62
2022/06/15 02:30:23;;;;;;;0.50;0.50;;;;;;;17.08;100.00;95595.38;5094007;28;20421;-62
2022/06/15 02:32:53;;;;;;;0.50;0.33;;;;;;;16.85;100.00;95549.03;5094612;28;21045;-62
2022/06/15 02:35:22;;;;;;;1.00;0.50;;;;;;;17.31;100.00;95606.91;5094245;28;20519;-62
2022/06/15 02:37:51;;;;;;;0.50;0.40;;;;;;;17.35;100.00;95619.41;5093984;28;20481;-62
2022/06/15 02:40:22;;;;;;;0.40;0.20;;;;;;;17.36;100.00;95618.28;5093753;28;20460;-62
2022/06/15 02:42:51;;;;;;;0.40;0.30;;;;;;;17.24;100.00;95623.41;5094100;28;20428;-62
2022/06/15 02:45:24;;;;;;;1.83;0.50;;;;;;;17.28;100.00;95627.06;5093688;28;20468;-60
2022/06/15 02:47:55;;;;;;;0.40;0.30;;;;;;;17.29;100.00;95625.97;5093643;28;20489;-60
2022/06/15 02:50:32;;;;;;;0.50;0.40;;;;;;;17.01;100.00;95611.88;5093009;28;20519;-60
2022/06/15 02:53:05;;;;;;;4.63;0.50;;;;;;;17.24;100.00;95636.00;5093614;28;20507;-62
2022/06/15 02:55:35;;;;;;;0.40;0.20;;;;;;;17.23;100.00;95634.44;5093675;28;20814;-60
2022/06/15 02:58:08;;;;;;;0.60;0.40;;;;;;;17.21;100.00;95634.72;5093632;28;20499;-60
2022/06/15 03:00:37;;;;;;;0.63;0.50;;;;;;;17.11;100.00;95619.69;5093691;28;20803;-60
2022/06/15 03:03:09;;;;;;;0.50;0.40;;;;;;;17.18;100.00;95634.56;5093742;28;20425;-60
2022/06/15 03:05:38;;;;;;;0.73;0.73;;;;;;;17.15;100.00;95642.06;5093287;28;20420;-60
2022/06/15 03:08:06;;;;;;;4.63;0.20;;;;;;;17.14;100.00;95637.84;5093245;28;20869;-61
2022/06/15 03:10:34;;;;;;;0.40;0.20;;;;;;;17.13;100.00;95638.91;5093355;28;20424;-60
2022/06/15 03:13:03;;;;;;;0.50;0.30;;;;;;;17.15;100.00;95642.06;5092826;28;20459;-60
2022/06/15 03:15:31;;;;;;;0.50;0.40;;;;;;;17.15;100.00;95633.28;5092889;28;20520;-60
2022/06/15 03:18:00;;;;;;;0.60;0.40;;;;;;;17.23;100.00;95629.84;5093265;28;20839;-60
2022/06/15 03:20:30;;;;;;;0.40;0.30;;;;;;;17.31;100.00;95631.00;5093094;28;20452;-60
2022/06/15 03:22:59;;;;;;;0.73;0.73;;;;;;;17.01;100.00;95635.19;5093042;28;20413;-60
2022/06/15 03:25:28;;;;;;;0.47;0.30;;;;;;;17.10;100.00;95638.75;5091798;28;20520;-60
2022/06/15 03:27:56;;;;;;;0.50;0.37;;;;;;;17.17;100.00;95631.09;5092636;28;20475;-61
2022/06/15 03:30:25;;;;;;;0.43;0.33;;;;;;;17.26;100.00;95639.97;5092709;28;20482;-61
2022/06/15 03:32:53;;;;;;;0.50;0.40;;;;;;;17.30;100.00;95646.31;5093035;28;20475;-61
2022/06/15 03:35:22;;;;;;;0.40;0.30;;;;;;;16.86;100.00;95571.25;5092538;28;20529;-60
2022/06/15 03:37:52;;;;;;;0.40;0.30;;;;;;;17.34;100.00;95643.81;5092658;28;20421;-60
2022/06/15 03:40:21;;;;;;;0.40;0.30;;;;;;;17.25;100.00;95645.63;5092479;28;20512;-60
2022/06/15 03:42:50;;;;;;;0.40;0.30;;;;;;;17.24;100.00;95650.19;5092490;28;20470;-62
2022/06/15 03:45:18;;;;;;;0.50;0.40;;;;;;;17.28;100.00;95653.84;5092619;28;20448;-61
2022/06/15 03:47:47;;;;;;;0.80;0.67;;;;;;;17.30;100.00;95667.75;5092239;28;20460;-61
2022/06/15 03:50:16;;;;;;;0.50;0.30;;;;;;;17.24;100.00;95668.94;5092311;28;20563;-61
2022/06/15 03:52:46;;;;;;;0.40;0.30;;;;;;;17.34;100.00;95666.03;5091667;28;20482;-61
2022/06/15 03:55:16;;;;;;;0.60;0.60;;;;;;;17.46;100.00;95665.50;5092226;28;20429;-62
2022/06/15 03:57:47;;;;;;;0.40;0.30;;;;;;;17.49;100.00;95670.25;5092440;28;20440;-63
2022/06/15 04:00:21;;;;;;;0.43;0.30;;;;;;;17.54;100.00;95662.13;5092133;28;20431;-61
2022/06/15 04:02:50;;;;;;;0.53;0.50;;;;;;;17.64;100.00;95665.34;5092025;28;20467;-63
2022/06/15 04:05:22;;;;;;;0.50;0.30;;;;;;;17.73;100.00;95668.88;5092338;28;20523;-62
2022/06/15 04:10:39;;;;;;;2.03;0.33;;;;;;;17.56;100.00;95668.75;5091715;28;20563;-62
2022/06/15 04:13:08;;;;;;;0.50;0.50;;;;;;;17.52;100.00;95664.28;5091997;28;20870;-63
2022/06/15 04:15:37;;;;;;;0.40;0.30;;;;;;;17.36;100.00;95617.50;5092341;28;20471;-62
2022/06/15 04:18:05;;;;;;;0.67;0.60;;;;;;;17.76;100.00;95664.78;5091912;28;20413;-64
2022/06/15 04:20:36;;;;;;;0.50;0.50;;;;;;;17.91;100.00;95659.06;5091255;28;20421;-63
2022/06/15 04:23:08;;;;;;;0.40;0.40;;;;;;;17.80;100.00;95671.16;5092262;28;20831;-64
2022/06/15 04:25:40;;;;;;;1.10;1.10;;;;;;;17.69;100.00;95675.97;5091724;28;20439;-65
2022/06/15 04:28:10;;;;;;;0.47;0.33;;;;;;;17.48;100.00;95674.81;5092101;28;20507;-64
2022/06/15 04:30:39;;;;;;;0.50;0.37;;;;;;;17.01;100.00;95603.84;5091912;28;20496;-67
2022/06/15 04:33:09;;;;;;;0.50;0.40;;;;;;;17.22;100.00;95608.75;5091965;28;20940;-65
2022/06/15 04:35:39;;;;;;;0.60;0.43;;;;;;;17.68;100.00;95674.38;5092188;28;20436;-66
2022/06/15 04:38:08;;;;;;;0.53;0.40;;;;;;;17.51;100.00;95636.69;5091638;28;20424;-65
2022/06/15 04:40:37;;;;;;;0.50;0.33;;;;;;;17.80;100.00;95673.03;5095653;28;20470;-66
2022/06/15 04:43:08;;;;;;;0.53;0.40;;;;;;;17.69;100.00;95662.56;5096486;28;20428;-68
2022/06/15 04:45:37;;;;;;;0.43;0.43;;;;;;;17.53;100.00;95615.75;5096129;28;20448;-68
2022/06/15 04:48:07;;;;;;;0.47;0.40;;;;;;;17.87;100.00;95676.06;5096026;28;20423;-67
2022/06/15 04:50:36;;;;;;;0.63;0.60;;;;;;;18.16;100.00;95655.75;5096115;28;20494;-67
2022/06/15 04:53:05;;;;;;;1.33;0.33;;;;;;;18.50;100.00;95668.53;5096027;28;20487;-68
2022/06/15 04:55:35;;;;;;;0.50;0.47;;;;;;;18.43;100.00;95670.84;5095824;28;20432;-67
2022/06/15 04:58:05;;;;;;;0.67;0.40;;;;;;;18.46;100.00;95664.88;5095906;28;20947;-67
2022/06/15 05:00:40;;;;;;;0.50;0.50;;;;;;;18.38;100.00;95661.03;5096088;28;20499;-66
2022/06/15 05:03:16;;;;;;;0.53;0.40;;;;;;;18.50;100.00;95665.84;5095849;28;20477;-65
2022/06/15 05:05:45;;;;;;;0.50;0.50;;;;;;;18.22;100.00;95656.38;5095853;28;20481;-66
2022/06/15 05:08:13;;;;;;;5.80;0.50;;;;;;;18.38;100.00;95644.94;5096801;28;20435;-65
2022/06/15 05:10:46;;;;;;;0.40;0.30;;;;;;;18.80;100.00;95654.25;5096711;28;20460;-64
2022/06/15 05:13:15;;;;;;;1.33;1.23;;;;;;;18.85;100.00;95586.97;5097609;28;20420;-64
2022/06/15 05:15:45;;;;;;;0.57;0.33;;;;;;;19.34;100.00;95657.50;5097011;28;20416;-64
2022/06/15 05:18:14;;;;;;;0.50;0.40;;;;;;;19.60;100.00;95648.34;5096825;28;20823;-63
2022/06/15 05:20:57;;;;;;;0.50;0.40;;;;;;;19.05;100.00;95658.09;5096226;28;20537;-62
2022/06/15 05:23:48;;;;;;;0.93;0.93;;;;;;;18.82;100.00;95670.84;5097102;28;20439;-63
2022/06/15 05:26:18;;;;;;;0.60;0.60;;;;;;;18.43;100.00;95574.22;5097066;28;20459;-65
2022/06/15 05:29:02;;;;;;;1.17;0.77;;;;;;;19.04;100.00;95659.22;5097397;28;20488;-62
2022/06/15 05:31:36;;;;;;;0.73;0.60;;;;;;;15.11;100.00;95101.78;5095755;28;20484;-62
2022/06/15 05:34:11;;;;;;;0.40;0.30;;;;;;;19.07;100.00;95602.16;5096444;28;20416;-62
2022/06/15 05:36:40;;;;;;;0.50;0.40;;;;;;;19.87;100.00;95657.16;5095862;28;20463;-61
2022/06/15 05:39:10;;;;;;;0.50;0.40;;;;;;;18.78;100.00;95612.69;5095055;28;20428;-61
2022/06/15 05:41:39;;;;;;;0.40;0.40;;;;;;;19.31;100.00;95663.50;5095441;28;20446;-61
2022/06/15 05:44:15;;;;;;;1.33;1.10;;;;;;;19.52;100.00;95653.72;5096468;28;20427;-61
2022/06/15 05:46:49;;;;;;;0.50;0.50;;;;;;;18.85;100.00;95498.34;5095903;28;20503;-61
2022/06/15 05:49:29;;;;;;;0.80;0.73;;;;;;;20.08;100.00;95653.50;5095398;28;20431;-61
2022/06/15 05:51:58;;;;;;;0.60;0.50;;;;;;;19.34;100.00;95592.97;5094355;28;20420;-60
2022/06/15 05:54:26;;;;;;;0.90;0.90;;;;;;;20.15;100.00;95655.69;5095531;28;20882;-61
2022/06/15 05:56:56;;;;;;;1.00;0.90;;;;;;;20.66;100.00;95652.03;5096119;28;20443;-61
2022/06/15 05:59:28;;;;;;;1.20;0.40;;;;;;;21.27;100.00;95650.59;5095554;28;20515;-61
2022/06/15 06:01:59;;;;;;;0.60;0.50;;;;;;;21.39;100.00;95651.44;5096639;28;20429;-61
2022/06/15 06:04:30;;;;;;;0.40;0.30;;;;;;;21.39;100.00;95656.03;5097312;28;20469;-60
2022/06/15 06:06:59;;;;;;;0.70;0.47;;;;;;;21.76;100.00;95660.47;5095421;28;20436;-60
2022/06/15 06:09:28;;;;;;;0.40;0.30;;;;;;;21.80;100.00;95664.09;5093998;28;20421;-60
2022/06/15 06:11:58;;;;;;;0.60;0.40;;;;;;;21.29;100.00;95661.81;5094889;28;20839;-60
2022/06/15 06:14:33;;;;;;;7.83;1.27;;;;;;;20.85;100.00;95630.84;5095679;28;20421;-60
2022/06/15 06:17:03;;;;;;;0.43;0.33;;;;;;;21.26;100.00;95606.66;5095199;28;20924;-57
2022/06/15 06:19:32;;;;;;;0.50;0.40;;;;;;;21.98;100.00;95646.66;5094200;28;20420;-56
2022/06/15 06:22:01;;;;;;;0.60;0.60;;;;;;;22.36;100.00;95659.13;5093732;28;20457;-56
2022/06/15 06:24:29;;;;;;;0.80;0.80;;;;;;;22.12;100.00;95663.34;5093934;28;20985;-56
2022/06/15 06:27:01;;;;;;;11.20;1.17;;;;;;;22.06;100.00;95661.19;5093660;28;20463;-57
2022/06/15 06:29:33;;;;;;;0.93;0.67;;;;;;;22.27;100.00;95651.09;5093799;28;20936;-57
2022/06/15 06:32:04;;;;;;;0.50;0.50;;;;;;;22.82;100.00;95649.84;5093174;28;20428;-56
2022/06/15 06:34:33;;;;;;;0.70;0.60;;;;;;;21.14;100.00;95471.03;5094367;28;20491;-56
2022/06/15 06:37:05;;;;;;;0.40;0.30;;;;;;;22.99;100.00;95634.16;5094191;28;20427;-56
2022/06/15 06:39:36;;;;;;;0.40;0.30;;;;;;;23.21;100.00;95641.00;5093865;28;20420;-56
2022/06/15 06:42:05;;;;;;;0.60;0.40;;;;;;;23.06;100.00;95637.09;5093765;28;20958;-57
2022/06/15 06:44:33;;;;;;;0.40;0.30;;;;;;;22.92;100.00;95598.03;5093626;28;20444;-57
2022/06/15 06:47:04;;;;;;;2.10;1.00;;;;;;;23.60;100.00;95631.34;5093882;28;20864;-57
2022/06/15 06:49:33;;;;;;;0.60;0.50;;;;;;;22.81;100.00;95567.16;5093593;28;20421;-57
2022/06/15 06:52:02;;;;;;;0.67;0.67;;;;;;;23.73;100.00;95625.53;5093679;28;20452;-57
2022/06/15 06:54:31;;;;;;;0.60;0.50;;;;;;;23.68;100.00;95579.00;5093046;28;20472;-56
2022/06/15 06:57:00;;;;;;;0.50;0.50;;;;;;;24.39;100.00;95609.50;5093055;28;20429;-57
2022/06/15 06:59:31;;;;;;;0.40;0.40;;;;;;;24.23;100.00;95551.84;5093302;28;20431;-56
2022/06/15 07:02:00;;;;;;;0.70;0.70;;;;;;;24.05;100.00;95545.16;5093109;28;20434;-56
2022/06/15 07:04:30;;;;;;;0.60;0.60;;;;;;;23.49;100.00;95631.03;5093284;28;20882;-56
2022/06/15 07:06:59;;;;;;;1.33;1.23;;;;;;;24.01;100.00;95617.38;5093511;28;20549;-56
2022/06/15 07:09:29;;;;;;;0.60;0.60;;;;;;;23.83;100.00;95619.59;5093225;28;20978;-57
2022/06/15 07:11:58;;;;;;;0.50;0.50;;;;;;;24.60;100.00;95622.78;5092893;28;20999;-57
2022/06/15 07:14:27;;;;;;;0.50;0.40;;;;;;;24.53;100.00;95620.69;5092991;28;20503;-58
2022/06/15 07:16:55;;;;;;;0.50;0.50;;;;;;;24.45;100.00;95586.44;5093102;28;20424;-59
2022/06/15 07:19:24;;;;;;;0.60;0.50;;;;;;;24.59;100.00;95618.50;5093613;28;20434;-60
2022/06/15 07:21:53;;;;;;;0.50;0.50;;;;;;;25.03;92.54;95621.88;5092636;28;20420;-60
2022/06/15 07:24:22;;;;;;;0.40;0.30;;;;;;;25.63;94.04;95620.47;5092725;28;20462;-60
2022/06/15 07:26:50;;;;;;;0.40;0.30;;;;;;;25.27;91.87;95524.72;5093021;28;20841;-61
2022/06/15 07:29:22;;;;;;;0.47;0.30;;;;;;;25.72;80.71;95534.16;5092987;28;20805;-61
2022/06/15 07:31:54;;;;;;;0.40;0.40;;;;;;;25.99;84.13;95622.72;5092752;28;20493;-62
2022/06/15 07:34:22;;;;;;;0.50;0.40;;;;;;;26.09;79.26;95596.91;5093101;28;20448;-62
2022/06/15 07:36:53;;;;;;;0.57;0.53;;;;;;;25.24;87.54;95615.00;5092855;28;20932;-62
2022/06/15 07:39:27;;;;;;;0.60;0.50;;;;;;;25.34;83.92;95613.66;5092684;28;20463;-61
2022/06/15 07:42:03;;;;;;;0.40;0.30;;;;;;;26.19;82.56;95626.22;5092681;28;20442;-61
2022/06/15 07:44:33;;;;;;;0.40;0.40;;;;;;;26.57;80.73;95619.88;5093527;28;20429;-66
2022/06/15 07:49:57;;;;;;;0.80;0.80;;;;;;;26.57;80.59;95611.72;5093940;28;20463;-67
2022/06/15 07:52:50;;;;;;;0.60;0.50;;;;;;;27.12;74.44;95611.09;5092938;28;20482;-64
2022/06/15 07:55:22;;;;;;;0.60;0.50;;;;;;;27.69;72.63;95591.63;5093149;28;20417;-66
2022/06/15 07:57:50;;;;;;;0.50;0.30;;;;;;;27.40;65.33;95608.75;5092638;28;20448;-66
2022/06/15 08:00:21;;;;;;;0.40;0.30;;;;;;;27.37;71.03;95617.66;5092610;28;20900;-64
2022/06/15 08:02:50;;;;;;;0.50;0.40;;;;;;;27.54;69.19;95605.44;5092312;28;20444;-64
2022/06/15 08:05:21;;;;;;;0.40;0.40;;;;;;;27.98;64.22;95608.28;5091918;28;20426;-64
2022/06/15 08:07:51;;;;;;;0.47;0.40;;;;;;;28.54;61.94;95606.13;5092160;28;20467;-62
2022/06/15 08:10:22;;;;;;;0.50;0.43;;;;;;;27.73;59.39;95599.06;5092412;28;20479;-63
2022/06/15 08:12:51;;;;;;;1.07;1.03;;;;;;;28.29;60.47;95596.94;5091388;28;20505;-63
2022/06/15 08:15:20;;;;;;;0.40;0.30;;;;;;;28.11;60.40;95601.44;5091697;28;20855;-62
2022/06/15 08:17:52;;;;;;;0.40;0.40;;;;;;;28.40;64.13;95592.38;5092074;28;20420;-62
2022/06/15 08:20:25;;;;;;;0.33;0.30;;;;;;;28.86;59.06;95599.03;5092701;28;20451;-61
2022/06/15 08:22:58;;;;;;;0.50;0.40;;;;;;;29.37;55.82;95600.91;5092106;28;20846;-62
2022/06/15 08:25:33;;;;;;;0.40;0.30;;;;;;;29.66;54.78;95597.13;5092222;28;20501;-62
2022/06/15 08:28:03;;;;;;;0.50;0.40;;;;;;;29.18;54.52;95595.69;5092040;28;20489;-61
2022/06/15 08:30:31;;;;;;;0.43;0.43;;;;;;;28.88;53.40;95607.59;5091743;28;20485;-61
2022/06/15 08:33:00;;;;;;;0.70;0.70;;;;;;;28.45;53.83;95533.97;5091605;28;20501;-62
2022/06/15 08:35:29;;;;;;;1.27;1.27;;;;;;;28.37;52.61;95522.22;5091961;28;20425;-60
2022/06/15 08:37:58;;;;;;;0.50;0.40;;;;;;;28.25;52.63;95527.97;5092064;28;20455;-60
2022/06/15 08:40:32;;;;;;;0.40;0.30;;;;;;;29.15;55.84;95555.50;5091825;28;20451;-60
2022/06/15 08:43:08;;;;;;;1.17;0.63;;;;;;;29.54;56.26;95603.72;5092092;28;20509;-60
2022/06/15 08:45:39;;;;;;;0.40;0.40;;;;;;;29.07;54.94;95594.88;5092142;28;20423;-60
2022/06/15 08:48:24;;;;;;;0.60;0.40;;;;;;;29.25;57.88;95549.34;5091753;28;20420;-60
2022/06/15 08:50:58;;;;;;;2.10;0.47;;;;;;;29.98;48.49;95543.38;5091709;28;20424;-61
2022/06/15 08:53:34;;;;;;;0.40;0.40;;;;;;;30.64;42.71;95587.59;5091576;28;20892;-61
2022/06/15 08:56:08;;;;;;;2.10;0.80;;;;;;;30.54;38.41;95593.84;5091828;28;20428;-59
2022/06/15 08:58:46;;;;;;;0.30;0.30;;;;;;;30.41;41.54;95499.72;5091799;28;20510;-59
2022/06/15 09:01:19;;;;;;;0.50;0.40;;;;;;;30.43;41.90;95519.22;5091870;28;20506;-60
2022/06/15 09:03:56;;;;;;;0.50;0.50;;;;;;;29.96;41.60;95569.53;5091283;28;20428;-59
2022/06/15 09:06:42;;;;;;;2.23;0.40;;;;;;;30.40;39.46;95588.41;5091777;28;20930;-60
2022/06/15 09:09:29;;;;;;;0.40;0.30;;;;;;;30.82;41.66;95580.19;5091505;28;20432;-60
2022/06/15 09:15:08;;;;;;;0.50;0.40;;;;;;;31.72;39.05;95574.13;5095633;28;20843;-61
2022/06/15 09:17:39;;;;;;;0.40;0.30;;;;;;;32.00;37.85;95569.28;5094531;28;20963;-62
2022/06/15 09:20:21;;;;;;;0.63;0.40;;;;;;;31.40;37.56;95553.09;5091682;28;20938;-61
2022/06/15 09:22:55;;;;;;;0.40;0.30;;;;;;;30.43;38.34;95568.47;5091557;28;20454;-61
2022/06/15 09:25:30;;;;;;;0.40;0.30;;;;;;;30.79;37.31;95565.31;5093249;28;20845;-62
2022/06/15 09:28:04;;;;;;;0.30;0.30;;;;;;;31.80;36.99;95562.72;5095547;28;20419;-62
2022/06/15 09:30:38;;;;;;;0.53;0.53;;;;;;;31.60;37.50;95569.09;5095441;28;20423;-62
2022/06/15 09:33:13;;;;;;;0.30;0.30;;;;;;;32.69;36.87;95546.47;5095278;28;20463;-62
2022/06/15 09:35:46;;;;;;;0.40;0.40;;;;;;;32.58;36.38;95556.78;5095134;28;20419;-62
2022/06/15 09:38:16;;;;;;;1.37;0.73;;;;;;;31.82;38.44;95563.13;5095136;28;20887;-62
2022/06/15 09:40:50;;;;;;;0.50;0.30;;;;;;;31.38;41.73;95560.91;5094975;28;20481;-62
2022/06/15 09:43:30;;;;;;;0.40;0.30;;;;;;;31.49;41.13;95514.34;5094994;28;20426;-62
2022/06/15 09:46:09;;;;;;;0.40;0.40;;;;;;;32.12;41.60;95551.59;5095056;28;20511;-61
2022/06/15 09:48:48;;;;;;;0.50;0.40;;;;;;;32.31;39.09;95553.06;5094299;28;20498;-61
2022/06/15 09:51:29;;;;;;;0.40;0.30;;;;;;;32.39;39.23;95552.59;5095008;28;20838;-61
2022/06/15 09:54:05;;;;;;;0.60;0.43;;;;;;;32.81;37.68;95547.97;5094618;28;20471;-62
2022/06/15 09:56:35;;;;;;;0.60;0.37;;;;;;;32.83;39.05;95551.06;5094779;28;20492;-62
2022/06/15 09:59:06;;;;;;;1.07;0.67;;;;;;;32.81;37.82;95542.47;5094483;28;20424;-63
2022/06/15 10:01:39;;;;;;;0.40;0.30;;;;;;;32.03;38.18;95532.06;5094993;28;20424;-63
2022/06/15 10:04:16;;;;;;;0.53;0.30;;;;;;;32.09;39.29;95524.97;5094890;28;20430;-62
2022/06/15 10:07:11;;;;;;;0.50;0.40;;;;;;;32.61;41.90;95529.28;5094568;28;21055;-63
2022/06/15 10:09:53;;;;;;;0.67;0.67;;;;;;;32.61;37.17;95529.28;5094081;28;20976;-62
2022/06/15 10:12:57;;;;;;;0.40;0.30;;;;;;;32.09;37.29;95453.69;5094333;28;20504;-63
2022/06/15 10:15:31;;;;;;;0.70;0.40;;;;;;;32.36;39.91;95528.69;5094415;28;20436;-63
2022/06/15 10:18:14;;;;;;;0.80;0.53;;;;;;;31.80;39.10;95518.84;5094660;28;20806;-63
2022/06/15 10:20:54;;;;;;;0.80;0.80;;;;;;;30.95;39.29;95447.22;5094195;28;20427;-63
2022/06/15 10:23:35;;;;;;;0.40;0.30;;;;;;;31.87;36.86;95513.34;5094275;28;20502;-63
2022/06/15 10:26:04;;;;;;;0.60;0.40;;;;;;;31.98;35.06;95514.06;5094226;28;20515;-62
2022/06/15 10:28:37;;;;;;;0.40;0.40;;;;;;;33.00;36.11;95511.66;5094412;28;20795;-62
2022/06/15 10:31:09;;;;;;;1.43;0.83;;;;;;;32.93;33.60;95460.34;5094145;28;21043;-62
2022/06/15 10:33:41;;;;;;;0.40;0.30;;;;;;;33.29;34.29;95501.97;5093827;28;20521;-57
2022/06/15 10:36:23;;;;;;;0.53;0.50;;;;;;;33.42;33.20;95497.47;5093791;28;20416;-58
2022/06/15 10:38:58;;;;;;;0.70;0.70;;;;;;;33.29;30.56;95504.72;5093931;28;20424;-57
2022/06/15 10:41:47;;;;;;;0.80;0.80;;;;;;;33.63;32.57;95497.22;5094224;28;20504;-58
2022/06/15 10:44:29;;;;;;;0.63;0.40;;;;;;;32.58;34.16;95502.69;5094048;28;20475;-58
2022/06/15 10:47:02;;;;;;;0.40;0.40;;;;;;;32.08;34.86;95495.97;5094078;28;20422;-59
2022/06/15 10:49:35;;;;;;;0.40;0.30;;;;;;;33.04;36.95;95493.22;5093701;28;20462;-58
2022/06/15 10:52:15;;;;;;;0.63;0.57;;;;;;;32.49;33.90;95439.22;5093816;28;20426;-58
2022/06/15 11:03:16;;;;;;;0.40;0.30;;;;;;;34.16;30.19;95471.72;5093410;28;20495;-57
2022/06/15 11:05:47;;;;;;;0.40;0.40;;;;;;;34.35;31.46;95465.53;5093404;28;20427;-58
2022/06/15 11:08:19;;;;;;;0.40;0.40;;;;;;;34.22;31.27;95455.53;5093191;28;20415;-58
2022/06/15 11:10:50;;;;;;;0.50;0.40;;;;;;;33.14;35.21;95465.63;5093250;28;20898;-59
2022/06/15 11:13:32;;;;;;;0.50;0.30;;;;;;;33.73;35.41;95466.06;5093511;28;20902;-58
2022/06/15 11:19:09;;;;;;;0.40;0.30;;;;;;;33.42;35.38;95456.25;5093388;28;20521;-58
2022/06/15 11:21:42;;;;;;;0.40;0.33;;;;;;;32.29;35.01;95448.41;5093012;28;20487;-58
2022/06/15 11:24:26;;;;;;;0.30;0.30;;;;;;;32.21;36.61;95428.50;5092790;28;20452;-58
2022/06/15 11:27:01;;;;;;;0.40;0.40;;;;;;;32.10;37.38;95460.72;5092549;28;20452;-59
2022/06/15 11:29:41;;;;;;;0.40;0.30;;;;;;;31.96;39.15;95460.78;5093183;28;20833;-58
2022/06/15 11:32:30;;;;;;;0.40;0.40;;;;;;;30.67;41.39;95277.63;5093003;28;20448;-58
2022/06/15 11:35:13;;;;;;;0.37;0.30;;;;;;;32.15;36.45;95380.75;5092714;28;20456;-58
2022/06/15 11:37:49;;;;;;;0.30;0.30;;;;;;;33.31;33.35;95394.38;5092366;28;21078;-58
2022/06/15 11:40:30;;;;;;;0.40;0.30;;;;;;;34.11;34.23;95447.44;5092459;28;20788;-58
2022/06/15 11:42:58;;;;;;;0.40;0.40;;;;;;;34.56;34.49;95431.34;5092399;28;20860;-55
2022/06/15 11:45:33;;;;;;;0.40;0.30;;;;;;;33.95;32.94;95443.75;5092272;28;20869;-54
2022/06/15 11:48:15;;;;;;;0.37;0.30;;;;;;;33.78;33.83;95440.06;5092313;28;20824;-54
2022/06/15 11:50:51;;;;;;;0.50;0.40;;;;;;;33.78;31.33;95418.06;5092743;28;20488;-54
2022/06/15 11:53:30;;;;;;;0.40;0.30;;;;;;;34.50;33.08;95446.78;5092494;28;21000;-54
2022/06/15 11:56:05;;;;;;;0.50;0.40;;;;;;;34.28;32.01;95442.84;5092414;28;20509;-54
2022/06/15 11:58:50;;;;;;;1.03;0.30;;;;;;;34.58;29.28;95445.50;5092407;28;20427;-55
2022/06/15 12:01:30;;;;;;;0.53;0.30;;;;;;;34.00;27.79;95451.53;5092493;28;20446;-54
2022/06/15 12:04:47;;;;;;;0.60;0.43;;;;;;;33.37;28.20;95445.69;5092369;28;20436;-54
2022/06/15 12:07:30;;;;;;;0.40;0.40;;;;;;;33.06;29.42;95446.91;5091888;28;20466;-54
2022/06/15 12:10:07;;;;;;;0.40;0.30;;;;;;;34.07;29.04;95429.44;5092556;28;20794;-54
2022/06/15 12:12:43;;;;;;;0.40;0.30;;;;;;;34.57;26.82;95445.91;5092388;28;20444;-54
2022/06/15 12:15:30;;;;;;;0.40;0.30;;;;;;;34.43;25.76;95433.16;5092482;28;20784;-54
2022/06/15 12:18:14;;;;;;;0.30;0.30;;;;;;;34.10;28.93;95445.13;5092314;28;20441;-54